Time;durP1;ratioP1;P1;durP2;ratioP2;P2;SDS_P1;SDS_P2;PMS_P1;PMS_P2;Temp;Humidity;BMP_temperature;BMP_pressure;BME280_temperature;BME280_humidity;BME280_pressure;Samples;Min_cycle;Max_cycle;Signal;HPM_P1;HPM_P2
2020/12/22 00:00:42;;;;;;;0.70;0.70;;;12.50;74.10;;;;;;4968444;28;20105;-75
2020/12/22 00:03:08;;;;;;;0.98;0.88;;;12.50;74.10;;;;;;4969789;28;20052;-74
2020/12/22 00:05:33;;;;;;;1.00;0.90;;;12.50;74.00;;;;;;4967597;28;20038;-75
2020/12/22 00:07:59;;;;;;;1.10;1.00;;;12.60;74.10;;;;;;4968107;28;20102;-75
2020/12/22 00:10:24;;;;;;;0.60;0.60;;;12.50;74.00;;;;;;4966943;28;20038;-75
2020/12/22 00:12:50;;;;;;;0.60;0.60;;;12.50;74.10;;;;;;4964345;28;20097;-75
2020/12/22 00:15:15;;;;;;;0.82;0.82;;;12.50;74.00;;;;;;4965431;28;20038;-75
2020/12/22 00:17:43;;;;;;;0.70;0.70;;;12.60;74.10;;;;;;4961041;28;20035;-76
2020/12/22 00:20:10;;;;;;;0.60;0.60;;;12.60;74.20;;;;;;4967675;28;20445;-75
2020/12/22 00:22:36;;;;;;;0.60;0.60;;;12.60;74.20;;;;;;4969222;28;20498;-75
2020/12/22 00:25:02;;;;;;;0.73;0.73;;;12.60;74.20;;;;;;4969339;28;20057;-75
2020/12/22 00:27:32;;;;;;;0.70;0.70;;;12.70;74.40;;;;;;4969009;28;20058;-75
2020/12/22 00:29:58;;;;;;;0.60;0.60;;;12.60;74.30;;;;;;4960732;28;20034;-76
2020/12/22 00:32:24;;;;;;;0.57;0.57;;;12.70;74.30;;;;;;4963720;28;20051;-75
2020/12/22 00:34:49;;;;;;;0.60;0.60;;;12.70;74.30;;;;;;4966451;28;20038;-76
2020/12/22 00:37:15;;;;;;;0.50;0.50;;;12.70;74.30;;;;;;4970139;28;20030;-76
2020/12/22 00:39:40;;;;;;;0.50;0.50;;;12.70;74.30;;;;;;4969973;28;20030;-76
2020/12/22 00:42:05;;;;;;;0.63;0.63;;;12.80;74.40;;;;;;4970027;28;20117;-76
2020/12/22 00:44:31;;;;;;;0.68;0.68;;;12.70;74.40;;;;;;4979603;28;20038;-76
2020/12/22 00:46:56;;;;;;;0.50;0.50;;;12.80;74.40;;;;;;4969983;28;20037;-76
2020/12/22 00:49:22;;;;;;;0.57;0.57;;;12.80;74.40;;;;;;4967397;28;20113;-75
2020/12/22 00:51:47;;;;;;;0.80;0.80;;;12.80;74.40;;;;;;4967356;28;20045;-75
2020/12/22 00:54:13;;;;;;;0.60;0.57;;;12.80;74.40;;;;;;4964273;28;20031;-75
2020/12/22 00:56:39;;;;;;;0.60;0.60;;;12.90;74.50;;;;;;4967363;28;20498;-75
2020/12/22 00:59:04;;;;;;;0.63;0.60;;;12.90;74.50;;;;;;4968301;28;20041;-75
2020/12/22 01:01:30;;;;;;;0.80;0.80;;;12.90;74.50;;;;;;4971601;28;20110;-75
2020/12/22 01:03:59;;;;;;;0.60;0.60;;;12.90;74.50;;;;;;4964035;28;20031;-75
2020/12/22 01:06:25;;;;;;;0.70;0.70;;;13.00;74.50;;;;;;4969938;28;20062;-75
2020/12/22 01:08:51;;;;;;;0.60;0.60;;;12.90;74.30;;;;;;4973424;28;20031;-75
2020/12/22 01:11:17;;;;;;;0.60;0.60;;;12.90;74.40;;;;;;4973155;28;20110;-76
2020/12/22 01:13:43;;;;;;;0.70;0.70;;;13.00;74.50;;;;;;4963781;28;20071;-75
2020/12/22 01:16:09;;;;;;;0.80;0.65;;;13.00;74.50;;;;;;4973683;28;20459;-76
2020/12/22 01:18:34;;;;;;;0.70;0.70;;;13.00;74.50;;;;;;4972404;28;20034;-75
2020/12/22 01:20:59;;;;;;;0.50;0.50;;;13.00;74.50;;;;;;4968748;28;20090;-76
2020/12/22 01:23:25;;;;;;;0.70;0.70;;;13.10;74.60;;;;;;4972793;28;20506;-75
2020/12/22 01:25:50;;;;;;;0.63;0.63;;;13.10;74.60;;;;;;4966503;28;20047;-75
2020/12/22 01:28:16;;;;;;;0.57;0.57;;;13.00;74.60;;;;;;4971390;28;20031;-75
2020/12/22 01:30:41;;;;;;;0.50;0.50;;;13.10;74.60;;;;;;4962687;28;20470;-75
2020/12/22 01:33:07;;;;;;;0.80;0.80;;;13.10;74.70;;;;;;4969813;28;20039;-75
2020/12/22 01:35:32;;;;;;;0.63;0.63;;;13.10;74.60;;;;;;4967089;28;20195;-75
2020/12/22 01:37:58;;;;;;;0.55;0.55;;;13.20;74.60;;;;;;4964038;28;20134;-75
2020/12/22 01:40:24;;;;;;;0.55;0.50;;;13.20;74.50;;;;;;4964685;28;20430;-75
2020/12/22 01:42:50;;;;;;;0.50;0.50;;;13.20;74.50;;;;;;4963037;28;20058;-75
2020/12/22 01:45:16;;;;;;;0.60;0.60;;;13.20;74.50;;;;;;4965630;28;20031;-75
2020/12/22 01:47:45;;;;;;;0.80;0.80;;;13.30;74.60;;;;;;4970353;28;20034;-75
2020/12/22 01:50:16;;;;;;;0.80;0.80;;;13.20;74.60;;;;;;4966898;28;20038;-76
2020/12/22 01:52:42;;;;;;;0.70;0.70;;;13.30;74.70;;;;;;4967183;28;20189;-75
2020/12/22 01:55:08;;;;;;;0.50;0.50;;;13.30;74.70;;;;;;4969844;28;20100;-75
2020/12/22 01:57:34;;;;;;;0.52;0.52;;;13.40;74.80;;;;;;4967599;28;20031;-75
2020/12/22 01:59:59;;;;;;;0.50;0.50;;;13.30;74.70;;;;;;4969868;28;20035;-75
2020/12/22 02:02:26;;;;;;;0.90;0.90;;;13.30;74.80;;;;;;4969343;28;20035;-75
2020/12/22 02:04:52;;;;;;;0.57;0.57;;;13.40;74.90;;;;;;4966611;28;20383;-75
2020/12/22 02:07:18;;;;;;;0.45;0.45;;;13.40;74.90;;;;;;4971369;28;20027;-75
2020/12/22 02:09:45;;;;;;;0.50;0.50;;;13.40;74.90;;;;;;4970067;28;20498;-75
2020/12/22 02:12:11;;;;;;;0.40;0.40;;;13.40;74.90;;;;;;4968305;28;20066;-75
2020/12/22 02:14:36;;;;;;;0.50;0.50;;;13.40;74.90;;;;;;4962548;28;20030;-75
2020/12/22 02:17:02;;;;;;;0.70;0.70;;;13.40;74.90;;;;;;4968869;28;20023;-75
2020/12/22 02:19:28;;;;;;;0.70;0.70;;;13.50;74.90;;;;;;4969338;28;20049;-75
2020/12/22 02:21:54;;;;;;;0.50;0.50;;;13.50;74.80;;;;;;4965798;28;20401;-75
2020/12/22 02:24:20;;;;;;;0.60;0.60;;;13.60;74.90;;;;;;4970163;28;20474;-75
2020/12/22 02:26:46;;;;;;;0.50;0.50;;;13.60;74.90;;;;;;4969959;28;20078;-75
2020/12/22 02:29:12;;;;;;;0.70;0.70;;;13.60;74.90;;;;;;4965428;28;20074;-75
2020/12/22 02:31:37;;;;;;;0.60;0.50;;;13.60;75.00;;;;;;4965678;28;20482;-75
2020/12/22 02:34:03;;;;;;;0.40;0.40;;;13.60;75.10;;;;;;4966259;28;20046;-75
2020/12/22 02:36:28;;;;;;;0.47;0.47;;;13.60;75.10;;;;;;4965763;28;20097;-75
2020/12/22 02:38:54;;;;;;;1.10;0.68;;;13.80;75.20;;;;;;4968197;28;20475;-75
2020/12/22 02:41:19;;;;;;;0.52;0.52;;;13.70;75.20;;;;;;4967040;28;20043;-75
2020/12/22 02:43:45;;;;;;;0.50;0.50;;;13.70;75.20;;;;;;4963059;28;20660;-75
2020/12/22 02:46:11;;;;;;;0.68;0.68;;;13.80;75.30;;;;;;4966399;28;20383;-75
2020/12/22 02:48:36;;;;;;;0.60;0.60;;;13.80;75.30;;;;;;4967293;28;20112;-75
2020/12/22 02:51:02;;;;;;;0.70;0.70;;;13.80;75.30;;;;;;4964752;28;20114;-75
2020/12/22 02:53:28;;;;;;;0.68;0.68;;;13.90;75.30;;;;;;4967684;28;20522;-74
2020/12/22 02:55:53;;;;;;;0.47;0.47;;;13.90;75.30;;;;;;4966163;28;20502;-74
2020/12/22 02:58:19;;;;;;;0.70;0.70;;;13.90;75.20;;;;;;4958742;28;20113;-74
2020/12/22 03:00:45;;;;;;;0.70;0.70;;;14.00;75.20;;;;;;4953609;28;20046;-74
2020/12/22 03:03:11;;;;;;;0.82;0.82;;;14.00;75.20;;;;;;4955393;28;20506;-75
2020/12/22 03:05:36;;;;;;;0.90;0.90;;;14.00;75.20;;;;;;4948295;28;20496;-75
2020/12/22 03:08:03;;;;;;;0.80;0.80;;;14.00;75.30;;;;;;4956626;28;20034;-75
2020/12/22 03:10:29;;;;;;;0.80;0.80;;;14.10;75.40;;;;;;4958599;28;20077;-75
2020/12/22 03:12:54;;;;;;;0.82;0.82;;;14.10;75.40;;;;;;4947901;28;20039;-75
2020/12/22 03:15:20;;;;;;;1.02;1.00;;;14.10;75.50;;;;;;4941457;28;20138;-75
2020/12/22 03:17:45;;;;;;;1.00;1.00;;;14.10;75.50;;;;;;4951438;28;20035;-75
2020/12/22 03:20:12;;;;;;;0.80;0.80;;;14.10;75.50;;;;;;4953740;28;20574;-76
2020/12/22 03:22:41;;;;;;;0.80;0.80;;;14.20;75.60;;;;;;4962865;28;20030;-75
2020/12/22 03:25:07;;;;;;;0.52;0.52;;;14.20;75.60;;;;;;4965578;28;20035;-76
2020/12/22 03:27:33;;;;;;;1.05;0.95;;;14.30;75.60;;;;;;4970015;28;20061;-75
2020/12/22 03:29:59;;;;;;;0.93;0.88;;;14.30;75.60;;;;;;4966776;28;20146;-76
2020/12/22 03:32:25;;;;;;;0.70;0.70;;;14.30;75.50;;;;;;4960229;28;20038;-74
2020/12/22 03:34:51;;;;;;;0.90;0.60;;;14.40;75.50;;;;;;4964595;28;20491;-75
2020/12/22 03:37:19;;;;;;;0.80;0.80;;;14.50;75.60;;;;;;4970642;28;20030;-75
2020/12/22 03:39:53;;;;;;;0.80;0.80;;;14.40;75.40;;;;;;4970691;28;20043;-75
2020/12/22 03:42:20;;;;;;;0.80;0.80;;;14.50;75.70;;;;;;4970580;28;20641;-75
2020/12/22 03:44:47;;;;;;;0.90;0.90;;;14.40;75.50;;;;;;4966405;28;20039;-75
2020/12/22 03:47:14;;;;;;;0.73;0.73;;;14.50;75.60;;;;;;4970386;28;20520;-75
2020/12/22 03:49:40;;;;;;;0.70;0.70;;;14.60;75.70;;;;;;4967818;28;20043;-75
2020/12/22 03:52:06;;;;;;;0.90;0.90;;;14.50;75.70;;;;;;4970441;28;20042;-74
2020/12/22 03:54:32;;;;;;;0.77;0.77;;;14.60;75.80;;;;;;4969107;28;20397;-75
2020/12/22 03:56:57;;;;;;;1.00;0.82;;;14.60;75.80;;;;;;4970587;28;20054;-75
2020/12/22 03:59:23;;;;;;;0.70;0.50;;;14.70;75.90;;;;;;4969166;28;20047;-75
2020/12/22 04:01:52;;;;;;;0.50;0.50;;;14.70;75.90;;;;;;4969244;28;20486;-74
2020/12/22 04:04:23;;;;;;;0.65;0.65;;;14.70;75.90;;;;;;4963939;28;20019;-74
2020/12/22 04:06:50;;;;;;;0.43;0.43;;;14.70;76.10;;;;;;4970141;28;20057;-74
2020/12/22 04:09:17;;;;;;;0.40;0.40;;;14.70;76.00;;;;;;4970116;28;20031;-74
2020/12/22 04:11:43;;;;;;;0.32;0.32;;;14.80;76.00;;;;;;4969439;28;20035;-74
2020/12/22 04:14:10;;;;;;;0.30;0.30;;;14.80;76.00;;;;;;4961013;28;20038;-74
2020/12/22 04:16:36;;;;;;;0.45;0.45;;;14.90;76.00;;;;;;4969969;28;20089;-74
2020/12/22 04:19:01;;;;;;;0.25;0.25;;;14.90;75.90;;;;;;4970607;28;20030;-74
2020/12/22 04:21:28;;;;;;;0.40;0.40;;;14.90;76.00;;;;;;4962340;28;20034;-73
2020/12/22 04:23:54;;;;;;;0.30;0.25;;;14.90;76.10;;;;;;4969733;28;20058;-74
2020/12/22 04:26:19;;;;;;;0.25;0.25;;;15.00;76.20;;;;;;4966703;28;20027;-74
2020/12/22 04:28:45;;;;;;;0.30;0.30;;;15.10;76.30;;;;;;4960668;28;20039;-74
2020/12/22 04:31:10;;;;;;;0.20;0.20;;;15.10;76.30;;;;;;4969726;28;20043;-74
2020/12/22 04:33:36;;;;;;;0.30;0.30;;;15.20;76.30;;;;;;4969578;28;20035;-74
2020/12/22 04:36:01;;;;;;;0.20;0.20;;;15.20;76.30;;;;;;4970723;28;20121;-74
2020/12/22 04:38:27;;;;;;;0.20;0.20;;;15.30;76.30;;;;;;4973803;28;20042;-73
2020/12/22 04:40:53;;;;;;;0.20;0.20;;;15.30;76.30;;;;;;4974028;28;20505;-74
2020/12/22 04:43:18;;;;;;;0.30;0.30;;;15.30;76.20;;;;;;4967371;28;20142;-74
2020/12/22 04:45:49;;;;;;;0.17;0.17;;;15.40;76.20;;;;;;4972716;28;20118;-73
2020/12/22 04:48:19;;;;;;;0.30;0.30;;;15.50;76.40;;;;;;4973863;28;20031;-73
2020/12/22 04:50:47;;;;;;;0.30;0.30;;;15.40;76.10;;;;;;4971068;28;20039;-73
2020/12/22 04:53:12;;;;;;;0.20;0.20;;;15.40;76.00;;;;;;4973315;28;20383;-74
2020/12/22 04:55:38;;;;;;;0.13;0.13;;;15.50;76.00;;;;;;4973403;28;20041;-74
2020/12/22 04:58:05;;;;;;;0.10;0.10;;;15.50;75.90;;;;;;4973794;28;20031;-74
2020/12/22 05:00:31;;;;;;;0.20;0.20;;;15.50;75.90;;;;;;4965844;28;20035;-73
2020/12/22 05:02:58;;;;;;;0.20;0.20;;;15.50;75.90;;;;;;4972170;28;20401;-73
2020/12/22 05:05:23;;;;;;;0.20;0.20;;;15.70;76.10;;;;;;4967236;28;20045;-74
2020/12/22 05:07:49;;;;;;;1.63;0.30;;;15.60;76.00;;;;;;4973146;28;20030;-74
2020/12/22 05:10:15;;;;;;;1.05;0.95;;;15.60;75.90;;;;;;4968596;28;20409;-73
2020/12/22 05:12:41;;;;;;;0.30;0.30;;;15.60;75.90;;;;;;4964881;28;20046;-74
2020/12/22 05:15:09;;;;;;;0.20;0.20;;;15.70;76.00;;;;;;4970891;28;20090;-73
2020/12/22 05:17:48;;;;;;;0.30;0.30;;;15.70;76.00;;;;;;4972648;28;20030;-73
2020/12/22 05:20:18;;;;;;;0.20;0.20;;;15.70;76.30;;;;;;4961391;28;20031;-73
2020/12/22 05:22:47;;;;;;;0.40;0.40;;;15.70;76.10;;;;;;4970929;28;20035;-73
2020/12/22 05:25:16;;;;;;;0.20;0.20;;;15.70;76.10;;;;;;4972471;28;20046;-74
2020/12/22 05:27:44;;;;;;;0.68;0.55;;;15.80;76.10;;;;;;4971285;28;20030;-73
2020/12/22 05:30:09;;;;;;;0.25;0.25;;;15.70;75.90;;;;;;4967041;28;20035;-74
2020/12/22 05:32:35;;;;;;;0.30;0.30;;;15.80;76.00;;;;;;4972117;28;20066;-73
2020/12/22 05:35:00;;;;;;;0.25;0.25;;;15.80;75.90;;;;;;4970717;28;20138;-75
2020/12/22 05:37:26;;;;;;;0.28;0.28;;;15.80;75.90;;;;;;4971561;28;20445;-72
2020/12/22 05:39:52;;;;;;;0.30;0.30;;;15.90;76.00;;;;;;4972701;28;20114;-74
2020/12/22 05:42:19;;;;;;;0.43;0.40;;;15.90;76.00;;;;;;4972128;28;20027;-74
2020/12/22 05:44:49;;;;;;;0.30;0.30;;;15.90;76.00;;;;;;4972000;28;20545;-74
2020/12/22 05:47:21;;;;;;;0.73;0.60;;;15.90;76.10;;;;;;4971491;28;20035;-73
2020/12/22 05:49:55;;;;;;;0.40;0.40;;;15.90;76.10;;;;;;4970117;28;20093;-74
2020/12/22 05:52:23;;;;;;;0.77;0.50;;;15.90;76.10;;;;;;4972048;28;20049;-72
2020/12/22 05:54:52;;;;;;;0.20;0.20;;;15.90;76.00;;;;;;4972327;28;20509;-74
2020/12/22 05:57:25;;;;;;;0.85;0.65;;;16.00;76.10;;;;;;4969387;28;20039;-73
2020/12/22 05:59:51;;;;;;;1.33;0.80;;;16.00;76.10;;;;;;4972317;28;20085;-74
2020/12/22 06:02:31;;;;;;;0.65;0.50;;;16.00;76.00;;;;;;4968121;28;20505;-73
2020/12/22 06:04:58;;;;;;;0.60;0.40;;;16.00;76.10;;;;;;4968293;28;20046;-74
2020/12/22 06:07:25;;;;;;;0.32;0.32;;;16.00;75.90;;;;;;4972228;28;20379;-74
2020/12/22 06:09:50;;;;;;;0.30;0.30;;;16.00;75.90;;;;;;4972170;28;20050;-73
2020/12/22 06:12:17;;;;;;;0.20;0.20;;;16.00;75.90;;;;;;4970902;28;20120;-74
2020/12/22 06:14:44;;;;;;;0.30;0.30;;;16.10;76.00;;;;;;4967087;28;20038;-74
2020/12/22 06:17:11;;;;;;;0.30;0.25;;;16.10;75.90;;;;;;4967835;28;20058;-74
2020/12/22 06:19:37;;;;;;;0.28;0.28;;;16.10;75.90;;;;;;4968454;28;20138;-74
2020/12/22 06:22:03;;;;;;;0.30;0.28;;;16.00;75.80;;;;;;4967123;28;20031;-75
2020/12/22 06:24:33;;;;;;;0.95;0.40;;;16.00;75.80;;;;;;4970394;28;20027;-75
2020/12/22 06:27:17;;;;;;;0.30;0.25;;;16.00;75.80;;;;;;4967872;28;20018;-75
2020/12/22 06:29:45;;;;;;;0.20;0.20;;;16.00;75.90;;;;;;4968398;28;20355;-75
2020/12/22 06:32:17;;;;;;;0.25;0.25;;;16.00;75.60;;;;;;4974519;28;20038;-74
2020/12/22 06:34:43;;;;;;;0.20;0.20;;;16.00;75.70;;;;;;4981126;28;20043;-75
2020/12/22 06:37:09;;;;;;;0.20;0.20;;;16.00;75.60;;;;;;4965506;28;20367;-74
2020/12/22 06:39:49;;;;;;;0.20;0.20;;;16.10;75.60;;;;;;4969081;28;20026;-75
2020/12/22 06:42:30;;;;;;;0.40;0.30;;;16.00;75.80;;;;;;4960310;28;20019;-74
2020/12/22 06:45:16;;;;;;;0.20;0.20;;;16.00;75.80;;;;;;4967942;28;20027;-74
2020/12/22 06:47:41;;;;;;;0.20;0.20;;;16.00;75.60;;;;;;4961045;28;20038;-73
2020/12/22 06:50:07;;;;;;;0.30;0.30;;;15.90;75.60;;;;;;4962733;28;20052;-74
2020/12/22 06:52:38;;;;;;;0.50;0.40;;;16.00;75.70;;;;;;4964566;28;20646;-73
2020/12/22 06:55:06;;;;;;;0.38;0.38;;;15.90;75.80;;;;;;4968836;28;20530;-73
2020/12/22 06:57:47;;;;;;;0.93;0.30;;;15.90;75.80;;;;;;4966572;28;20041;-73
2020/12/22 07:00:34;;;;;;;1.05;0.40;;;16.00;76.00;;;;;;4964940;28;20026;-73
2020/12/22 07:03:10;;;;;;;0.80;0.40;;;15.90;76.00;;;;;;4965857;28;20027;-73
2020/12/22 07:05:41;;;;;;;3.08;1.63;;;15.90;76.10;;;;;;4958575;28;20031;-73
2020/12/22 07:08:07;;;;;;;0.40;0.38;;;15.90;75.90;;;;;;4962339;28;20379;-73
2020/12/22 07:10:46;;;;;;;0.30;0.30;;;15.90;75.90;;;;;;4958574;28;20402;-74
2020/12/22 07:13:13;;;;;;;0.38;0.25;;;15.90;76.10;;;;;;4959085;28;20031;-74
2020/12/22 07:15:48;;;;;;;0.65;0.40;;;16.00;76.00;;;;;;4967350;28;20465;-73
2020/12/22 07:18:30;;;;;;;0.68;0.45;;;15.90;76.10;;;;;;4967537;28;20123;-73
2020/12/22 07:20:58;;;;;;;0.40;0.40;;;15.90;76.20;;;;;;4966257;28;20410;-74
2020/12/22 07:23:23;;;;;;;1.08;0.50;;;16.00;76.00;;;;;;4970438;28;20373;-74
2020/12/22 07:25:51;;;;;;;0.73;0.45;;;16.00;75.90;;;;;;4969922;28;20440;-73
2020/12/22 07:28:17;;;;;;;0.52;0.40;;;16.00;76.00;;;;;;4970292;28;20490;-73
2020/12/22 07:30:42;;;;;;;1.30;0.50;;;16.00;76.00;;;;;;4968853;28;20049;-73
2020/12/22 07:33:08;;;;;;;1.05;0.50;;;15.90;75.90;;;;;;4968010;28;20035;-72
2020/12/22 07:35:33;;;;;;;0.80;0.52;;;16.00;75.90;;;;;;4963376;28;20053;-72
2020/12/22 07:38:08;;;;;;;1.60;0.60;;;15.90;75.80;;;;;;4959440;28;20037;-73
2020/12/22 07:40:38;;;;;;;0.75;0.25;;;16.00;75.80;;;;;;4966791;28;20035;-73
2020/12/22 07:43:08;;;;;;;0.40;0.40;;;16.00;75.80;;;;;;4961386;28;20039;-73
2020/12/22 07:45:37;;;;;;;0.73;0.40;;;15.90;75.80;;;;;;4967987;28;20039;-70
2020/12/22 07:48:07;;;;;;;1.20;0.50;;;16.00;75.80;;;;;;4965309;28;20268;-73
2020/12/22 07:50:33;;;;;;;0.60;0.30;;;16.00;76.00;;;;;;4955139;28;20031;-73
2020/12/22 07:52:59;;;;;;;0.38;0.20;;;16.00;75.90;;;;;;4955274;28;20930;-72
2020/12/22 07:55:25;;;;;;;0.32;0.20;;;16.00;76.00;;;;;;4959493;28;20039;-73
2020/12/22 07:57:52;;;;;;;0.35;0.30;;;16.10;76.00;;;;;;4967361;28;20034;-73
2020/12/22 08:00:19;;;;;;;0.55;0.28;;;16.00;76.00;;;;;;4968897;28;20394;-73
2020/12/22 08:02:45;;;;;;;0.35;0.20;;;16.00;76.00;;;;;;4967991;28;20050;-72
2020/12/22 08:05:14;;;;;;;1.02;0.47;;;16.00;76.00;;;;;;4967565;28;20530;-73
2020/12/22 08:07:43;;;;;;;0.77;0.40;;;16.00;76.00;;;;;;4969014;28;20094;-73
2020/12/22 08:10:09;;;;;;;0.20;0.15;;;16.00;76.00;;;;;;4962740;28;20030;-73
2020/12/22 08:12:35;;;;;;;0.65;0.30;;;16.00;76.00;;;;;;4968517;28;20413;-73
2020/12/22 08:15:02;;;;;;;0.25;0.22;;;16.00;76.00;;;;;;4968762;28;20093;-73
2020/12/22 08:17:27;;;;;;;0.20;0.20;;;16.00;76.00;;;;;;4969593;28;20027;-73
2020/12/22 08:19:54;;;;;;;0.38;0.30;;;16.00;76.00;;;;;;4969157;28;20069;-73
2020/12/22 08:22:20;;;;;;;0.40;0.40;;;16.00;75.90;;;;;;4969508;28;20023;-73
2020/12/22 08:24:45;;;;;;;0.88;0.50;;;16.00;75.90;;;;;;4969227;28;20042;-73
2020/12/22 08:27:12;;;;;;;0.40;0.20;;;16.00;75.90;;;;;;4969577;28;20031;-73
2020/12/22 08:29:39;;;;;;;0.30;0.30;;;16.10;76.00;;;;;;4966782;28;20035;-73
2020/12/22 08:32:05;;;;;;;0.10;0.10;;;16.00;75.90;;;;;;4969361;28;20409;-73
2020/12/22 08:34:31;;;;;;;0.40;0.40;;;16.00;75.90;;;;;;4966941;28;20035;-73
2020/12/22 08:36:56;;;;;;;0.30;0.25;;;16.00;75.90;;;;;;4969794;28;20054;-73
2020/12/22 08:39:23;;;;;;;0.20;0.20;;;16.00;75.90;;;;;;4969889;28;20026;-73
2020/12/22 08:41:50;;;;;;;0.38;0.20;;;16.00;75.90;;;;;;4969091;28;20035;-74
2020/12/22 08:44:16;;;;;;;0.30;0.30;;;16.00;76.00;;;;;;4968027;28;20035;-73
2020/12/22 08:46:43;;;;;;;0.30;0.30;;;16.00;76.00;;;;;;4969190;28;20054;-73
2020/12/22 08:49:17;;;;;;;0.75;0.40;;;16.00;76.00;;;;;;4968622;28;20030;-73
2020/12/22 08:51:44;;;;;;;0.20;0.20;;;16.10;76.10;;;;;;4967971;28;20043;-73
2020/12/22 08:54:10;;;;;;;0.32;0.20;;;16.10;76.10;;;;;;4969168;28;20126;-73
2020/12/22 08:56:39;;;;;;;0.70;0.20;;;16.10;76.10;;;;;;4969260;28;20039;-72
2020/12/22 08:59:09;;;;;;;0.20;0.20;;;16.20;76.20;;;;;;4968097;28;20041;-72
2020/12/22 09:01:39;;;;;;;0.20;0.20;;;16.10;76.10;;;;;;4967058;28;20027;-73
2020/12/22 09:04:05;;;;;;;0.50;0.30;;;16.00;76.10;;;;;;4969007;28;20042;-73
2020/12/22 09:06:32;;;;;;;0.13;0.13;;;16.10;76.10;;;;;;4962797;28;20040;-73
2020/12/22 09:08:59;;;;;;;0.47;0.43;;;16.10;76.20;;;;;;4958437;28;20035;-73
2020/12/22 09:11:25;;;;;;;0.40;0.40;;;16.10;76.20;;;;;;4967558;28;20035;-72
2020/12/22 09:14:01;;;;;;;0.47;0.20;;;16.10;76.20;;;;;;4968719;28;20547;-73
2020/12/22 09:16:43;;;;;;;0.95;0.30;;;16.20;76.40;;;;;;4966573;28;20039;-73
2020/12/22 09:19:08;;;;;;;1.05;0.75;;;16.20;76.40;;;;;;4963038;28;20045;-74
2020/12/22 09:21:34;;;;;;;0.20;0.20;;;16.10;76.10;;;;;;4969020;28;20102;-73
2020/12/22 09:23:59;;;;;;;0.25;0.25;;;16.10;76.10;;;;;;4972758;28;20062;-72
2020/12/22 09:26:25;;;;;;;0.57;0.32;;;16.20;76.20;;;;;;4967771;28;20054;-74
2020/12/22 09:28:50;;;;;;;0.20;0.20;;;16.20;76.20;;;;;;4969257;28;20126;-74
2020/12/22 09:31:24;;;;;;;0.40;0.30;;;16.10;76.00;;;;;;4972270;28;20568;-73
2020/12/22 09:33:49;;;;;;;0.43;0.30;;;16.20;76.20;;;;;;4973397;28;20037;-73
2020/12/22 09:36:14;;;;;;;0.35;0.22;;;16.20;76.10;;;;;;4970175;28;20476;-74
2020/12/22 09:38:40;;;;;;;0.55;0.30;;;16.20;76.20;;;;;;4972181;28;20098;-73
2020/12/22 09:41:05;;;;;;;0.30;0.20;;;16.20;76.10;;;;;;4972752;28;20494;-73
2020/12/22 09:43:31;;;;;;;1.05;0.30;;;16.20;76.10;;;;;;4969346;28;20779;-74
2020/12/22 09:45:56;;;;;;;0.40;0.28;;;16.20;76.10;;;;;;4971875;28;20393;-74
2020/12/22 09:48:22;;;;;;;1.55;0.40;;;16.20;76.10;;;;;;4972048;28;20191;-74
2020/12/22 09:50:47;;;;;;;0.20;0.20;;;16.20;76.00;;;;;;4969817;28;20038;-75
2020/12/22 09:53:13;;;;;;;0.60;0.15;;;16.20;76.10;;;;;;4971013;28;20073;-74
2020/12/22 09:55:38;;;;;;;1.75;0.30;;;16.20;76.00;;;;;;4971911;28;20097;-76
2020/12/22 09:58:04;;;;;;;0.35;0.20;;;16.20;76.00;;;;;;4972260;28;20540;-76
2020/12/22 10:00:29;;;;;;;0.10;0.10;;;16.30;76.10;;;;;;4967412;28;20041;-75
2020/12/22 10:02:55;;;;;;;1.75;0.50;;;16.20;76.00;;;;;;4971814;28;20073;-75
2020/12/22 10:05:20;;;;;;;0.52;0.20;;;16.20;76.00;;;;;;4966836;28;20027;-75
2020/12/22 10:07:46;;;;;;;0.73;0.30;;;16.20;76.00;;;;;;4968614;28;20071;-75
2020/12/22 10:10:11;;;;;;;0.15;0.15;;;16.20;76.00;;;;;;4961701;28;20034;-75
2020/12/22 10:12:37;;;;;;;0.77;0.20;;;16.20;76.00;;;;;;4961904;28;20448;-75
2020/12/22 10:15:02;;;;;;;0.20;0.17;;;16.10;76.00;;;;;;4968310;28;20035;-75
2020/12/22 10:17:29;;;;;;;1.60;0.30;;;16.10;76.10;;;;;;4967144;28;20027;-74
2020/12/22 10:19:54;;;;;;;0.47;0.20;;;16.20;76.20;;;;;;4960075;28;20038;-74
2020/12/22 10:22:20;;;;;;;0.70;0.30;;;16.20;76.70;;;;;;4960753;28;20548;-74
2020/12/22 10:24:45;;;;;;;0.25;0.20;;;16.20;76.10;;;;;;4961267;28;20417;-75
2020/12/22 10:27:11;;;;;;;0.63;0.25;;;16.20;76.00;;;;;;4963445;28;20106;-75
2020/12/22 10:29:36;;;;;;;1.08;0.40;;;16.10;75.80;;;;;;4963343;28;20035;-74
2020/12/22 10:32:01;;;;;;;0.63;0.20;;;16.20;75.80;;;;;;4960786;28;20038;-75
2020/12/22 10:34:27;;;;;;;0.90;0.20;;;16.10;75.60;;;;;;4959570;28;20061;-75
2020/12/22 10:36:52;;;;;;;0.28;0.20;;;16.20;75.50;;;;;;4959315;28;20039;-75
2020/12/22 10:39:18;;;;;;;0.40;0.28;;;16.10;75.50;;;;;;4960316;28;20525;-75
2020/12/22 10:41:43;;;;;;;0.40;0.20;;;16.00;75.30;;;;;;4960665;28;20053;-73
2020/12/22 10:44:09;;;;;;;0.30;0.20;;;16.00;75.30;;;;;;4960938;28;20035;-75
2020/12/22 10:46:34;;;;;;;0.75;0.20;;;16.00;75.30;;;;;;4960993;28;20042;-75
2020/12/22 10:49:00;;;;;;;0.10;0.10;;;16.00;75.20;;;;;;4961991;28;20039;-75
2020/12/22 10:51:26;;;;;;;0.35;0.20;;;15.90;75.00;;;;;;4960648;28;20146;-74
2020/12/22 10:53:51;;;;;;;0.10;0.10;;;15.80;74.70;;;;;;4961489;28;20035;-74
2020/12/22 10:56:17;;;;;;;0.10;0.10;;;15.80;74.50;;;;;;4963524;28;20035;-74
2020/12/22 10:58:43;;;;;;;0.20;0.20;;;15.70;74.40;;;;;;4960625;28;20046;-74
2020/12/22 11:01:09;;;;;;;0.30;0.30;;;15.60;74.20;;;;;;4961922;28;20042;-74
2020/12/22 11:03:35;;;;;;;0.43;0.32;;;15.60;74.20;;;;;;4960769;28;20050;-74
2020/12/22 11:06:10;;;;;;;0.20;0.20;;;15.50;74.10;;;;;;4959028;28;20031;-74
2020/12/22 11:08:43;;;;;;;0.73;0.45;;;15.40;74.00;;;;;;4958142;28;20093;-74
2020/12/22 11:11:09;;;;;;;0.77;0.40;;;15.30;73.90;;;;;;4958013;28;20126;-74
2020/12/22 11:13:35;;;;;;;1.25;0.88;;;15.30;74.10;;;;;;4958738;28;20470;-74
2020/12/22 11:16:01;;;;;;;0.93;0.60;;;15.20;74.00;;;;;;4958605;28;20425;-75
2020/12/22 11:18:27;;;;;;;0.90;0.80;;;15.20;74.00;;;;;;4958523;28;20038;-74
2020/12/22 11:20:52;;;;;;;3.05;0.82;;;15.00;74.00;;;;;;4959536;28;20042;-75
2020/12/22 11:23:18;;;;;;;0.90;0.70;;;14.90;74.00;;;;;;4959419;28;20430;-75
2020/12/22 11:25:43;;;;;;;1.20;0.80;;;14.90;74.20;;;;;;4958527;28;20587;-75
2020/12/22 11:28:09;;;;;;;3.05;1.20;;;14.80;74.30;;;;;;4959175;28;20035;-74
2020/12/22 11:30:34;;;;;;;1.80;1.10;;;14.80;74.30;;;;;;4958585;28;20038;-76
2020/12/22 11:33:00;;;;;;;1.00;0.80;;;14.70;74.30;;;;;;4952176;28;20118;-75
2020/12/22 11:35:25;;;;;;;0.60;0.60;;;14.70;74.30;;;;;;4944651;28;20049;-75
2020/12/22 11:37:51;;;;;;;0.90;0.80;;;14.70;74.30;;;;;;4946184;28;20077;-75
2020/12/22 11:40:16;;;;;;;2.10;0.80;;;14.70;74.20;;;;;;4941698;28;20058;-75
2020/12/22 11:42:42;;;;;;;0.73;0.57;;;14.70;74.30;;;;;;4945963;28;20038;-74
2020/12/22 11:45:08;;;;;;;1.50;0.63;;;14.50;74.30;;;;;;4942351;28;20058;-76
2020/12/22 11:47:33;;;;;;;0.90;0.70;;;14.50;74.30;;;;;;4946946;28;20059;-76
2020/12/22 11:49:59;;;;;;;0.88;0.55;;;14.50;74.30;;;;;;4942356;28;20043;-75
2020/12/22 11:52:24;;;;;;;1.55;0.93;;;14.40;74.30;;;;;;4948709;28;20034;-75
2020/12/22 11:54:50;;;;;;;0.95;0.75;;;14.50;74.30;;;;;;4946432;28;20058;-75
2020/12/22 11:57:15;;;;;;;1.10;0.88;;;14.40;74.10;;;;;;4941600;28;20089;-75
2020/12/22 11:59:41;;;;;;;2.92;1.08;;;14.40;74.10;;;;;;4948958;28;20147;-75
2020/12/22 12:02:06;;;;;;;1.10;0.70;;;14.30;74.00;;;;;;4939842;28;20026;-74
2020/12/22 12:04:32;;;;;;;0.85;0.63;;;14.30;74.10;;;;;;4947089;28;20042;-75
2020/12/22 12:06:58;;;;;;;2.47;0.50;;;14.20;74.20;;;;;;4947981;28;20446;-74
2020/12/22 12:09:24;;;;;;;1.40;1.00;;;14.20;74.30;;;;;;4940607;28;20042;-76
2020/12/22 12:11:50;;;;;;;1.55;0.80;;;14.20;74.30;;;;;;4947129;28;20054;-75
2020/12/22 12:14:17;;;;;;;1.50;1.10;;;14.20;74.40;;;;;;4942162;28;20034;-75
2020/12/22 12:16:48;;;;;;;1.67;1.00;;;14.20;74.50;;;;;;4948211;28;20690;-76
2020/12/22 12:19:15;;;;;;;2.10;0.95;;;14.20;74.50;;;;;;4938995;28;20038;-77
2020/12/22 12:21:41;;;;;;;1.85;0.80;;;14.10;74.40;;;;;;4946666;28;20043;-75
2020/12/22 12:24:07;;;;;;;1.48;1.20;;;14.10;74.40;;;;;;4938203;28;20568;-75
2020/12/22 12:26:33;;;;;;;0.98;0.90;;;14.10;74.30;;;;;;4948531;28;20680;-75
2020/12/22 12:28:59;;;;;;;1.33;0.77;;;14.20;74.40;;;;;;4946839;28;20522;-75
2020/12/22 12:31:26;;;;;;;1.83;0.70;;;14.10;74.40;;;;;;4944159;28;20066;-76
2020/12/22 12:33:53;;;;;;;3.03;1.10;;;14.20;74.40;;;;;;4944553;28;20397;-76
2020/12/22 12:36:19;;;;;;;3.10;0.65;;;14.00;74.30;;;;;;4948554;28;20105;-76
2020/12/22 12:38:44;;;;;;;1.55;0.70;;;14.00;74.20;;;;;;4958937;28;20530;-76
2020/12/22 12:41:11;;;;;;;0.75;0.52;;;14.00;74.30;;;;;;4957800;28;20047;-75
2020/12/22 12:43:37;;;;;;;1.27;0.47;;;14.00;74.40;;;;;;4955951;28;20093;-76
2020/12/22 12:46:08;;;;;;;1.17;0.57;;;14.00;74.50;;;;;;4960379;28;20027;-75